Time;durP1;ratioP1;P1;durP2;ratioP2;P2;SDS_P1;SDS_P2;PMS_P1;PMS_P2;Temp;Humidity;BMP_temperature;BMP_pressure;BME280_temperature;BME280_humidity;BME280_pressure;Samples;Min_cycle;Max_cycle;Signal;HPM_P1;HPM_P2
2022/02/19 00:00:44;;;;;;;2.10;1.40;;;8.20;99.90;;;;;;5081289;28;20469;-69
2022/02/19 00:03:11;;;;;;;2.53;1.23;;;8.20;99.90;;;;;;5081137;28;20466;-68
2022/02/19 00:05:39;;;;;;;4.73;1.07;;;8.20;99.90;;;;;;5081370;28;20461;-70
2022/02/19 00:08:08;;;;;;;4.27;1.30;;;8.20;99.90;;;;;;5081102;28;20458;-69
2022/02/19 00:10:35;;;;;;;4.20;1.57;;;8.30;99.90;;;;;;5081085;28;20754;-69
2022/02/19 00:13:02;;;;;;;2.87;1.00;;;8.30;99.90;;;;;;5081091;28;20786;-67
2022/02/19 00:15:30;;;;;;;9.40;1.40;;;8.20;99.90;;;;;;5080918;28;20474;-69
2022/02/19 00:17:59;;;;;;;6.73;1.10;;;8.30;99.90;;;;;;5081509;28;20772;-67
2022/02/19 00:20:26;;;;;;;4.93;1.23;;;8.30;99.90;;;;;;5081130;28;20788;-67
2022/02/19 00:22:53;;;;;;;4.97;1.87;;;8.30;99.90;;;;;;5080882;28;20534;-68
2022/02/19 00:25:24;;;;;;;2.93;1.20;;;8.30;99.90;;;;;;5080909;28;20884;-68
2022/02/19 00:27:53;;;;;;;3.73;1.37;;;8.30;99.90;;;;;;5081318;28;20458;-68
2022/02/19 00:30:21;;;;;;;7.83;1.40;;;8.30;99.90;;;;;;5080463;28;20517;-68
2022/02/19 00:32:48;;;;;;;5.50;1.50;;;8.20;99.90;;;;;;5080934;28;20569;-68
2022/02/19 00:35:15;;;;;;;2.87;1.33;;;8.20;99.90;;;;;;5080774;28;20504;-68
2022/02/19 00:37:42;;;;;;;4.07;1.33;;;8.20;99.90;;;;;;5080897;28;20453;-68
2022/02/19 00:40:10;;;;;;;4.00;1.03;;;8.20;99.90;;;;;;5080824;28;20450;-68
2022/02/19 00:42:39;;;;;;;4.23;1.53;;;8.20;99.90;;;;;;5080780;28;20515;-69
2022/02/19 00:45:09;;;;;;;4.07;1.33;;;8.10;99.90;;;;;;5080575;28;20457;-68
2022/02/19 00:47:35;;;;;;;3.07;1.23;;;8.10;99.90;;;;;;5080531;28;20434;-68
2022/02/19 00:50:02;;;;;;;3.17;1.43;;;8.10;99.90;;;;;;5076728;28;20457;-68
2022/02/19 00:52:29;;;;;;;4.73;1.33;;;8.10;99.90;;;;;;5077619;28;20470;-69
2022/02/19 00:54:56;;;;;;;6.30;1.50;;;8.00;99.90;;;;;;5077320;28;20930;-69
2022/02/19 00:57:22;;;;;;;6.00;1.47;;;8.00;99.90;;;;;;5077524;28;20942;-68
2022/02/19 00:59:50;;;;;;;5.53;1.40;;;8.00;99.90;;;;;;5077510;28;20462;-67
2022/02/19 01:02:17;;;;;;;10.53;1.73;;;8.00;99.90;;;;;;5077427;28;20526;-68
2022/02/19 01:04:45;;;;;;;7.40;1.67;;;7.90;99.90;;;;;;5077511;28;20469;-68
2022/02/19 01:07:12;;;;;;;4.43;1.87;;;8.00;99.90;;;;;;5077174;28;20463;-68
2022/02/19 01:09:38;;;;;;;4.90;1.90;;;7.90;99.90;;;;;;5077249;28;20471;-68
2022/02/19 01:12:06;;;;;;;7.23;1.47;;;7.90;99.90;;;;;;5076893;28;20474;-68
2022/02/19 01:14:33;;;;;;;7.03;1.73;;;7.90;99.90;;;;;;5077076;28;20469;-68
2022/02/19 01:17:01;;;;;;;4.83;1.40;;;7.90;99.90;;;;;;5077001;28;20535;-68
2022/02/19 01:19:28;;;;;;;5.37;1.33;;;7.90;99.90;;;;;;5077349;28;20462;-67
2022/02/19 01:21:54;;;;;;;4.20;2.10;;;7.90;99.90;;;;;;5077674;28;20454;-70
2022/02/19 01:24:22;;;;;;;8.77;1.80;;;7.90;99.90;;;;;;5077341;28;20798;-70
2022/02/19 01:26:51;;;;;;;3.87;1.83;;;7.90;99.90;;;;;;5077203;28;20469;-69
2022/02/19 01:29:17;;;;;;;12.10;1.67;;;7.90;99.90;;;;;;5078420;28;20895;-67
2022/02/19 01:31:44;;;;;;;7.27;2.37;;;7.90;99.90;;;;;;5076269;28;20494;-68
2022/02/19 01:34:12;;;;;;;6.23;1.80;;;7.80;99.90;;;;;;5076917;28;20457;-68
2022/02/19 01:36:40;;;;;;;6.10;1.57;;;7.90;99.90;;;;;;5076458;28;20544;-68
2022/02/19 01:39:07;;;;;;;4.17;1.73;;;7.90;99.90;;;;;;5076884;28;20527;-72
2022/02/19 01:41:33;;;;;;;4.53;1.93;;;7.90;99.90;;;;;;5077069;28;20458;-67
2022/02/19 01:44:05;;;;;;;4.53;1.80;;;7.90;99.90;;;;;;5076814;28;20844;-68
2022/02/19 01:46:32;;;;;;;6.70;1.80;;;7.90;99.90;;;;;;5076456;28;20481;-68
2022/02/19 01:48:59;;;;;;;7.87;2.00;;;7.90;99.90;;;;;;5076285;28;20461;-68
2022/02/19 01:51:31;;;;;;;4.73;2.37;;;7.90;99.90;;;;;;5076422;28;20915;-68
2022/02/19 01:53:58;;;;;;;8.97;1.80;;;7.90;99.90;;;;;;5076570;28;20537;-68
2022/02/19 01:56:25;;;;;;;3.83;1.73;;;7.90;99.90;;;;;;5076388;28;20816;-68
2022/02/19 01:58:52;;;;;;;8.00;1.83;;;7.90;99.90;;;;;;5076545;28;20458;-67
2022/02/19 02:01:19;;;;;;;6.77;1.80;;;7.90;99.90;;;;;;5075006;28;20462;-68
2022/02/19 02:03:45;;;;;;;7.10;1.93;;;7.90;99.90;;;;;;5076026;28;20457;-69
2022/02/19 02:06:13;;;;;;;8.53;1.80;;;7.90;99.90;;;;;;5075971;28;20469;-68
2022/02/19 02:08:41;;;;;;;5.83;2.00;;;7.90;99.90;;;;;;5076317;28;20469;-68
2022/02/19 02:11:08;;;;;;;4.93;1.77;;;7.90;99.90;;;;;;5076090;28;20467;-68
2022/02/19 02:13:35;;;;;;;5.07;2.10;;;7.90;99.90;;;;;;5075972;28;20484;-75
2022/02/19 02:16:02;;;;;;;5.77;3.00;;;7.90;99.90;;;;;;5076242;28;20902;-68
2022/02/19 02:18:31;;;;;;;3.73;1.77;;;7.90;99.90;;;;;;5076367;28;20841;-68
2022/02/19 02:21:05;;;;;;;3.00;1.67;;;7.90;99.90;;;;;;5075950;28;20827;-68
2022/02/19 02:23:33;;;;;;;7.27;1.80;;;7.90;99.90;;;;;;5076837;28;20439;-68
2022/02/19 02:26:02;;;;;;;5.97;1.97;;;7.80;99.90;;;;;;5077061;28;20454;-68
2022/02/19 02:28:29;;;;;;;3.83;1.27;;;7.80;99.90;;;;;;5078632;28;20457;-68
2022/02/19 02:30:59;;;;;;;8.10;2.37;;;7.80;99.90;;;;;;5077526;28;20557;-67
2022/02/19 02:33:26;;;;;;;4.03;1.70;;;7.80;99.90;;;;;;5077450;28;20454;-68
2022/02/19 02:35:53;;;;;;;10.57;1.80;;;7.80;99.90;;;;;;5076734;28;20462;-67
2022/02/19 02:38:19;;;;;;;6.40;1.90;;;7.80;99.90;;;;;;5076121;28;20458;-68
2022/02/19 02:40:47;;;;;;;3.73;1.60;;;7.70;99.90;;;;;;5076042;28;20515;-69
2022/02/19 02:43:14;;;;;;;4.13;1.67;;;7.70;99.90;;;;;;5076538;28;20458;-68
2022/02/19 02:45:41;;;;;;;6.70;1.77;;;7.80;99.90;;;;;;5076398;28;20453;-68
2022/02/19 02:48:07;;;;;;;3.17;1.73;;;7.80;99.90;;;;;;5075761;28;20458;-68
2022/02/19 02:50:36;;;;;;;7.57;2.50;;;7.80;99.90;;;;;;5076373;28;20501;-68
2022/02/19 02:53:03;;;;;;;7.27;1.90;;;7.80;99.90;;;;;;5075170;28;20458;-68
2022/02/19 02:55:30;;;;;;;3.20;1.80;;;7.80;99.90;;;;;;5075348;28;20536;-69
2022/02/19 02:57:58;;;;;;;5.63;1.70;;;7.80;99.90;;;;;;5074983;28;20962;-68
2022/02/19 03:00:25;;;;;;;7.40;1.83;;;7.80;99.90;;;;;;5075158;28;20454;-68
2022/02/19 03:02:51;;;;;;;4.63;1.53;;;7.70;99.90;;;;;;5075331;28;20458;-68
2022/02/19 03:05:21;;;;;;;6.90;1.97;;;7.70;99.90;;;;;;5075286;28;20471;-68
2022/02/19 03:07:48;;;;;;;5.83;1.40;;;7.70;99.90;;;;;;5075052;28;20541;-68
2022/02/19 03:10:16;;;;;;;8.87;1.97;;;7.70;99.90;;;;;;5074902;28;20457;-68
2022/02/19 03:12:48;;;;;;;4.30;1.90;;;7.60;99.90;;;;;;5075025;28;20469;-68
2022/02/19 03:15:19;;;;;;;4.27;1.57;;;7.60;99.90;;;;;;5075241;28;20836;-68
2022/02/19 03:17:47;;;;;;;5.37;2.13;;;7.50;99.90;;;;;;5075432;28;20475;-68
2022/02/19 03:20:15;;;;;;;5.70;1.60;;;7.50;99.90;;;;;;5075502;28;20469;-69
2022/02/19 03:22:44;;;;;;;7.40;2.00;;;7.50;99.90;;;;;;5076789;28;20461;-69
2022/02/19 03:25:11;;;;;;;3.73;1.70;;;7.50;99.90;;;;;;5075528;28;20539;-69
2022/02/19 03:27:38;;;;;;;2.60;1.53;;;7.60;99.90;;;;;;5075030;28;20461;-68
2022/02/19 03:30:05;;;;;;;4.33;1.60;;;7.60;99.90;;;;;;5076394;28;20493;-69
2022/02/19 03:32:33;;;;;;;6.17;1.63;;;7.50;99.90;;;;;;5076667;28;20469;-68
2022/02/19 03:35:00;;;;;;;4.33;1.50;;;7.50;99.90;;;;;;5076417;28;20458;-68
2022/02/19 03:37:33;;;;;;;6.20;2.13;;;7.50;99.90;;;;;;5076100;28;20482;-68
2022/02/19 03:40:06;;;;;;;3.50;1.50;;;7.50;99.90;;;;;;5075722;28;20899;-68
2022/02/19 03:42:32;;;;;;;4.43;1.60;;;7.50;99.90;;;;;;5075550;28;20478;-69
2022/02/19 03:44:59;;;;;;;3.40;1.63;;;7.50;99.90;;;;;;5075830;28;20453;-69
2022/02/19 03:47:26;;;;;;;2.70;1.43;;;7.50;99.90;;;;;;5074906;28;20450;-68
2022/02/19 03:49:54;;;;;;;5.33;1.63;;;7.50;99.90;;;;;;5074844;28;20469;-68
2022/02/19 03:52:21;;;;;;;9.33;1.60;;;7.40;99.90;;;;;;5074873;28;20462;-68
2022/02/19 03:54:48;;;;;;;5.33;2.07;;;7.40;99.90;;;;;;5075451;28;20465;-69
2022/02/19 03:57:14;;;;;;;4.27;1.40;;;7.40;99.90;;;;;;5074467;28;20851;-68
2022/02/19 03:59:41;;;;;;;5.30;2.00;;;7.40;99.90;;;;;;5074704;28;20458;-68
2022/02/19 04:02:08;;;;;;;4.70;1.83;;;7.40;99.90;;;;;;5074546;28;20930;-69
2022/02/19 04:04:35;;;;;;;4.43;1.53;;;7.40;99.90;;;;;;5074683;28;20466;-68
2022/02/19 04:07:03;;;;;;;5.57;2.17;;;7.40;99.90;;;;;;5074739;28;20451;-68
2022/02/19 04:09:30;;;;;;;8.93;1.90;;;7.40;99.90;;;;;;5074486;28;20468;-68
2022/02/19 04:11:56;;;;;;;5.80;1.80;;;7.30;99.90;;;;;;5074626;28;20485;-70
2022/02/19 04:14:23;;;;;;;5.23;2.00;;;7.40;99.90;;;;;;5074427;28;20458;-68
2022/02/19 04:16:50;;;;;;;9.97;2.17;;;7.40;99.90;;;;;;5074003;28;20477;-68
2022/02/19 04:19:19;;;;;;;3.90;1.83;;;7.30;99.90;;;;;;5074488;28;20469;-68
2022/02/19 04:21:46;;;;;;;7.93;2.30;;;7.40;99.90;;;;;;5074534;28;20454;-68
2022/02/19 04:24:14;;;;;;;3.17;1.57;;;7.30;99.90;;;;;;5076242;28;20454;-69
2022/02/19 04:26:42;;;;;;;6.43;1.63;;;7.30;99.90;;;;;;5078089;28;20473;-68
2022/02/19 04:29:09;;;;;;;4.10;1.63;;;7.30;99.90;;;;;;5078363;28;20846;-69
2022/02/19 04:31:35;;;;;;;3.27;1.57;;;7.30;99.90;;;;;;5077544;28;20524;-68
2022/02/19 04:34:02;;;;;;;5.87;2.47;;;7.20;99.90;;;;;;5077882;28;20923;-68
2022/02/19 04:36:29;;;;;;;7.33;1.80;;;7.20;99.90;;;;;;5077880;28;20469;-68
2022/02/19 04:38:55;;;;;;;5.27;1.80;;;7.10;99.90;;;;;;5077839;28;20933;-68
2022/02/19 04:41:23;;;;;;;4.60;1.93;;;7.00;99.90;;;;;;5078017;28;20458;-68
2022/02/19 04:43:50;;;;;;;3.83;1.87;;;7.00;99.90;;;;;;5077953;28;20783;-68
2022/02/19 04:46:17;;;;;;;3.60;1.87;;;6.90;99.90;;;;;;5077526;28;20454;-69
2022/02/19 04:48:44;;;;;;;6.53;1.70;;;6.90;99.90;;;;;;5077395;28;20468;-69
2022/02/19 04:51:11;;;;;;;8.53;2.13;;;6.80;99.90;;;;;;5078077;28;20468;-67
2022/02/19 04:53:38;;;;;;;10.43;1.47;;;6.70;99.90;;;;;;5077828;28;20486;-68
2022/02/19 04:56:05;;;;;;;3.07;1.90;;;6.70;99.90;;;;;;5078120;28;20458;-68
2022/02/19 04:58:33;;;;;;;6.13;2.30;;;6.70;99.90;;;;;;5078570;28;20492;-69
2022/02/19 05:01:00;;;;;;;3.00;1.63;;;6.70;99.90;;;;;;5078111;28;20476;-68
2022/02/19 05:03:27;;;;;;;2.83;1.70;;;6.70;99.90;;;;;;5078009;28;20469;-69
2022/02/19 05:05:55;;;;;;;4.20;1.80;;;6.60;99.90;;;;;;5079464;28;20488;-68
2022/02/19 05:08:21;;;;;;;5.00;1.93;;;6.60;99.90;;;;;;5080426;28;20477;-68
2022/02/19 05:10:48;;;;;;;3.33;1.93;;;6.60;99.90;;;;;;5080524;28;20643;-68
2022/02/19 05:13:15;;;;;;;4.80;1.57;;;6.60;99.90;;;;;;5079783;28;20454;-68
2022/02/19 05:15:45;;;;;;;4.23;1.93;;;6.60;99.90;;;;;;5079242;28;20462;-68
2022/02/19 05:18:14;;;;;;;3.20;1.37;;;6.50;99.90;;;;;;5079039;28;20466;-68
2022/02/19 05:20:41;;;;;;;6.30;1.93;;;6.50;99.90;;;;;;5077339;28;20997;-68
2022/02/19 05:23:08;;;;;;;5.57;1.97;;;6.50;99.90;;;;;;5077726;28;20458;-69
2022/02/19 05:25:35;;;;;;;5.43;1.90;;;6.50;99.90;;;;;;5077271;28;20458;-68
2022/02/19 05:28:02;;;;;;;3.73;1.80;;;6.50;99.90;;;;;;5077286;28;20462;-69
2022/02/19 05:30:29;;;;;;;7.90;2.13;;;6.50;99.90;;;;;;5077027;28;20970;-70
2022/02/19 05:32:57;;;;;;;5.40;1.60;;;6.40;99.90;;;;;;5077124;28;20500;-69
2022/02/19 05:35:24;;;;;;;4.77;2.40;;;6.40;99.90;;;;;;5077165;28;20454;-68
2022/02/19 05:37:51;;;;;;;5.37;2.07;;;6.40;99.90;;;;;;5077639;28;20478;-70
2022/02/19 05:40:21;;;;;;;6.30;1.87;;;6.40;99.90;;;;;;5078210;28;20786;-68
2022/02/19 05:42:50;;;;;;;5.53;2.37;;;6.40;99.90;;;;;;5077333;28;20501;-69
2022/02/19 05:45:16;;;;;;;4.40;2.10;;;6.40;99.90;;;;;;5079007;28;20458;-68
2022/02/19 05:47:47;;;;;;;10.83;2.20;;;6.30;99.90;;;;;;5079343;28;20907;-68
2022/02/19 05:50:17;;;;;;;4.27;2.00;;;6.30;99.90;;;;;;5077452;28;20452;-68
2022/02/19 05:52:43;;;;;;;3.20;1.90;;;6.20;99.90;;;;;;5076516;28;20935;-68
2022/02/19 05:55:10;;;;;;;3.57;2.10;;;6.20;99.90;;;;;;5076790;28;20473;-68
2022/02/19 05:57:41;;;;;;;5.53;1.90;;;6.20;99.90;;;;;;5076876;28;20501;-69
2022/02/19 06:00:09;;;;;;;6.10;2.30;;;6.20;99.90;;;;;;5076347;28;20494;-68
2022/02/19 06:02:36;;;;;;;4.33;2.27;;;6.10;99.90;;;;;;5076639;28;20790;-68
2022/02/19 06:05:03;;;;;;;6.50;2.27;;;6.10;99.90;;;;;;5076447;28;20458;-68
2022/02/19 06:07:31;;;;;;;3.70;2.10;;;6.10;99.90;;;;;;5076573;28;20465;-68
2022/02/19 06:09:58;;;;;;;6.50;2.30;;;6.10;99.90;;;;;;5076941;28;20458;-68
2022/02/19 06:12:25;;;;;;;2.83;2.07;;;6.10;99.90;;;;;;5076240;28;20916;-68
2022/02/19 06:14:51;;;;;;;2.73;1.90;;;6.10;99.90;;;;;;5076325;28;20458;-68
2022/02/19 06:17:18;;;;;;;3.37;2.10;;;6.00;99.90;;;;;;5076057;28;20458;-68
2022/02/19 06:19:47;;;;;;;3.63;2.00;;;6.00;99.90;;;;;;5075773;28;20934;-69
2022/02/19 06:22:14;;;;;;;5.80;2.53;;;6.00;99.90;;;;;;5075928;28;20454;-71
2022/02/19 06:24:42;;;;;;;4.00;2.30;;;6.00;99.90;;;;;;5075970;28;20482;-68
2022/02/19 06:27:09;;;;;;;4.47;1.83;;;6.00;99.90;;;;;;5075596;28;20465;-68
2022/02/19 06:29:35;;;;;;;5.67;1.80;;;6.00;99.90;;;;;;5075347;28;20454;-68
2022/02/19 06:32:02;;;;;;;2.93;1.70;;;6.00;99.90;;;;;;5075799;28;20895;-68
2022/02/19 06:34:31;;;;;;;4.97;2.77;;;6.00;99.90;;;;;;5075985;28;20461;-68
2022/02/19 06:36:57;;;;;;;4.00;1.80;;;5.90;99.90;;;;;;5075839;28;20787;-68
2022/02/19 06:39:24;;;;;;;4.07;2.00;;;5.90;99.90;;;;;;5075594;28;20481;-68
2022/02/19 06:41:52;;;;;;;3.00;2.27;;;5.90;99.90;;;;;;5075600;28;20468;-69
2022/02/19 06:44:19;;;;;;;2.80;2.03;;;5.90;99.90;;;;;;5075751;28;20794;-69
2022/02/19 06:46:46;;;;;;;6.33;2.50;;;5.90;99.90;;;;;;5074934;28;20778;-68
2022/02/19 06:49:12;;;;;;;3.37;2.00;;;5.90;99.90;;;;;;5075775;28;20446;-69
2022/02/19 06:51:39;;;;;;;4.90;2.00;;;5.90;99.90;;;;;;5075265;28;20515;-69
2022/02/19 06:54:06;;;;;;;3.30;1.50;;;5.90;99.90;;;;;;5075653;28;20794;-68
2022/02/19 06:56:33;;;;;;;2.83;1.83;;;5.90;99.90;;;;;;5075476;28;20824;-68
2022/02/19 06:59:01;;;;;;;1.33;1.23;;;5.90;99.90;;;;;;5075280;28;20501;-69
2022/02/19 07:01:28;;;;;;;3.80;1.37;;;5.90;99.90;;;;;;5074981;28;20469;-69
2022/02/19 07:03:57;;;;;;;1.80;1.10;;;5.80;99.90;;;;;;5075426;28;20455;-68
2022/02/19 07:06:23;;;;;;;2.20;1.50;;;5.80;99.90;;;;;;5075514;28;20611;-68
2022/02/19 07:08:50;;;;;;;1.40;1.13;;;5.80;99.90;;;;;;5075297;28;20465;-68
2022/02/19 07:11:17;;;;;;;2.00;1.03;;;5.70;99.90;;;;;;5075436;28;20454;-68
2022/02/19 07:13:43;;;;;;;6.13;1.40;;;5.80;99.90;;;;;;5075387;28;20470;-68
2022/02/19 07:16:12;;;;;;;6.43;1.43;;;5.80;99.90;;;;;;5075282;28;20798;-68
2022/02/19 07:18:38;;;;;;;5.03;1.40;;;5.70;99.90;;;;;;5076234;28;20783;-68
2022/02/19 07:21:06;;;;;;;2.57;1.40;;;5.70;99.90;;;;;;5075511;28;20454;-68
2022/02/19 07:23:33;;;;;;;3.27;1.47;;;5.60;99.90;;;;;;5074752;28;20465;-69
2022/02/19 07:26:00;;;;;;;3.70;1.57;;;5.60;99.90;;;;;;5075105;28;20465;-67
2022/02/19 07:28:26;;;;;;;4.13;1.37;;;5.50;99.90;;;;;;5075223;28;20786;-69
2022/02/19 07:30:53;;;;;;;4.70;1.40;;;5.60;99.90;;;;;;5074762;28;20582;-69
2022/02/19 07:33:21;;;;;;;3.20;1.57;;;5.60;99.90;;;;;;5074632;28;20930;-69
2022/02/19 07:35:48;;;;;;;4.40;1.40;;;5.60;99.90;;;;;;5075125;28;20462;-69
2022/02/19 07:38:15;;;;;;;2.40;1.30;;;5.60;99.90;;;;;;5074314;28;20478;-68
2022/02/19 07:40:41;;;;;;;2.30;1.37;;;5.60;99.90;;;;;;5074960;28;20516;-68
2022/02/19 07:43:08;;;;;;;2.97;1.30;;;5.60;99.90;;;;;;5074785;28;20842;-69
2022/02/19 07:45:35;;;;;;;2.83;1.50;;;5.70;99.90;;;;;;5074886;28;20465;-71
2022/02/19 07:48:01;;;;;;;1.40;1.20;;;5.70;99.90;;;;;;5074958;28;20458;-68
2022/02/19 07:58:56;;;;;;;2.23;1.63;;;5.70;99.90;;;;;;5036668;28;20530;-68
2022/02/19 08:01:23;;;;;;;4.20;1.50;;;5.70;99.90;;;;;;5071467;28;20458;-69
2022/02/19 08:03:50;;;;;;;3.03;1.97;;;5.70;99.90;;;;;;5082291;28;20533;-68
2022/02/19 08:06:18;;;;;;;2.33;1.20;;;5.70;99.90;;;;;;5082111;28;20789;-69
2022/02/19 08:08:44;;;;;;;6.00;1.80;;;5.70;99.90;;;;;;5080444;28;20473;-69
2022/02/19 08:11:11;;;;;;;3.37;1.50;;;5.70;99.90;;;;;;5080122;28;20458;-69
2022/02/19 08:13:38;;;;;;;2.07;1.20;;;5.70;99.90;;;;;;5079361;28;20469;-67
2022/02/19 08:16:08;;;;;;;2.57;1.60;;;5.70;99.90;;;;;;5078680;28;20457;-69
2022/02/19 08:18:35;;;;;;;4.17;1.60;;;5.70;99.90;;;;;;5078555;28;20497;-69
2022/02/19 08:21:01;;;;;;;1.83;1.47;;;5.70;99.90;;;;;;5079002;28;20821;-68
2022/02/19 08:23:29;;;;;;;6.50;1.47;;;5.80;99.90;;;;;;5078122;28;20787;-68
2022/02/19 08:25:56;;;;;;;3.40;1.53;;;5.80;99.90;;;;;;5078637;28;20458;-69
2022/02/19 08:28:23;;;;;;;1.70;1.40;;;5.80;99.90;;;;;;5078312;28;20464;-70
2022/02/19 08:30:51;;;;;;;4.50;1.73;;;5.80;99.90;;;;;;5078331;28;20516;-69
2022/02/19 08:33:18;;;;;;;3.40;1.53;;;5.80;99.90;;;;;;5078194;28;20458;-69
2022/02/19 08:35:45;;;;;;;3.07;1.40;;;5.70;99.90;;;;;;5078174;28;20539;-69
2022/02/19 08:38:12;;;;;;;3.60;1.40;;;5.70;99.90;;;;;;5078404;28;20482;-68
2022/02/19 08:40:42;;;;;;;3.23;1.27;;;5.70;99.90;;;;;;5078721;28;20454;-69
2022/02/19 08:43:10;;;;;;;2.13;1.20;;;5.60;99.90;;;;;;5079223;28;20461;-69
2022/02/19 08:45:38;;;;;;;1.93;1.43;;;5.50;99.90;;;;;;5079218;28;20466;-69
2022/02/19 08:48:05;;;;;;;2.37;1.60;;;5.50;99.90;;;;;;5080029;28;20891;-68
2022/02/19 08:50:34;;;;;;;3.67;1.50;;;5.50;99.90;;;;;;5078989;28;20458;-68
2022/02/19 08:53:03;;;;;;;3.30;1.60;;;5.50;99.90;;;;;;5078597;28;20469;-69
2022/02/19 08:55:33;;;;;;;2.03;1.50;;;5.50;99.90;;;;;;5078150;28;20462;-68
2022/02/19 08:58:01;;;;;;;2.07;1.37;;;5.50;99.90;;;;;;5077892;28;20459;-68
2022/02/19 09:00:28;;;;;;;2.57;1.40;;;5.50;99.90;;;;;;5077536;28;20472;-68
2022/02/19 09:02:55;;;;;;;5.93;1.60;;;5.50;99.90;;;;;;5078239;28;20446;-69
2022/02/19 09:05:22;;;;;;;4.73;1.40;;;5.40;99.90;;;;;;5078162;28;20783;-68
2022/02/19 09:07:49;;;;;;;7.23;1.37;;;5.40;99.90;;;;;;5079746;28;20458;-69
2022/02/19 09:10:17;;;;;;;3.33;1.70;;;5.50;99.90;;;;;;5078448;28;20454;-68
2022/02/19 09:12:47;;;;;;;2.10;1.60;;;5.50;99.90;;;;;;5077867;28;20453;-69
2022/02/19 09:15:17;;;;;;;2.17;1.30;;;5.30;99.90;;;;;;5077576;28;20782;-68
2022/02/19 09:17:46;;;;;;;4.07;1.80;;;5.30;99.90;;;;;;5077464;28;20438;-69
2022/02/19 09:20:14;;;;;;;3.03;1.80;;;5.30;99.90;;;;;;5077260;28;20486;-68
2022/02/19 09:22:41;;;;;;;2.20;1.60;;;5.30;99.90;;;;;;5077348;28;20546;-68
2022/02/19 09:25:10;;;;;;;2.63;1.70;;;5.30;99.90;;;;;;5077813;28;20470;-68
2022/02/19 09:27:38;;;;;;;3.97;1.60;;;5.30;99.90;;;;;;5077970;28;20497;-69
2022/02/19 09:30:06;;;;;;;7.00;2.03;;;5.20;99.90;;;;;;5076756;28;20489;-71
2022/02/19 09:32:34;;;;;;;5.17;2.20;;;5.20;99.90;;;;;;5077220;28;20461;-71
2022/02/19 09:35:05;;;;;;;4.10;1.70;;;5.30;99.90;;;;;;5077286;28;20485;-68
2022/02/19 09:37:33;;;;;;;7.27;2.20;;;5.30;99.90;;;;;;5077227;28;20472;-69
2022/02/19 09:40:04;;;;;;;2.90;1.63;;;5.40;99.90;;;;;;5077428;28;20478;-68
2022/02/19 09:42:31;;;;;;;7.17;3.10;;;5.20;99.90;;;;;;5077386;28;20810;-69
2022/02/19 09:45:00;;;;;;;4.53;2.00;;;5.10;99.90;;;;;;5076965;28;20466;-69
2022/02/19 09:47:29;;;;;;;2.67;1.73;;;5.00;99.90;;;;;;5077021;28;20512;-68
2022/02/19 09:49:59;;;;;;;9.37;2.40;;;5.00;99.90;;;;;;5077402;28;20458;-72
2022/02/19 09:52:26;;;;;;;5.87;2.20;;;5.00;99.90;;;;;;5076665;28;20469;-70
2022/02/19 09:54:56;;;;;;;4.70;1.80;;;5.00;99.90;;;;;;5076728;28;20532;-70
2022/02/19 09:57:26;;;;;;;6.93;2.87;;;5.10;99.90;;;;;;5076719;28;20945;-69
2022/02/19 09:59:53;;;;;;;9.40;3.20;;;5.10;99.90;;;;;;5076721;28;20474;-69
2022/02/19 10:02:32;;;;;;;4.77;1.97;;;5.20;99.90;;;;;;5077188;28;20477;-70
2022/02/19 10:05:12;;;;;;;4.43;2.00;;;5.20;99.90;;;;;;5076783;28;20443;-71
2022/02/19 10:07:41;;;;;;;5.60;1.80;;;5.20;99.90;;;;;;5076566;28;20744;-69
2022/02/19 10:10:08;;;;;;;3.60;1.80;;;5.30;99.90;;;;;;5076472;28;20462;-69
2022/02/19 10:12:46;;;;;;;5.30;2.30;;;5.30;99.90;;;;;;5076002;28;20923;-69
2022/02/19 10:15:13;;;;;;;4.43;1.87;;;5.40;99.90;;;;;;5076404;28;20785;-68
2022/02/19 10:17:43;;;;;;;3.63;1.70;;;5.40;99.90;;;;;;5076477;28;20504;-69
2022/02/19 10:20:14;;;;;;;4.43;2.00;;;5.40;99.90;;;;;;5075515;28;20489;-69
2022/02/19 10:22:43;;;;;;;4.73;1.77;;;5.40;99.90;;;;;;5075535;28;20556;-68
2022/02/19 10:25:16;;;;;;;5.40;2.13;;;5.50;99.90;;;;;;5076333;28;20488;-69
2022/02/19 10:27:48;;;;;;;4.03;1.93;;;5.60;99.90;;;;;;5076700;28;20446;-69
2022/02/19 10:30:16;;;;;;;2.80;1.20;;;5.70;99.90;;;;;;5075721;28;20485;-69
2022/02/19 10:32:48;;;;;;;7.37;1.60;;;5.70;99.90;;;;;;5075606;28;20902;-68
2022/02/19 10:35:19;;;;;;;4.27;1.70;;;5.80;99.90;;;;;;5076636;28;20458;-68
2022/02/19 10:37:48;;;;;;;3.83;1.87;;;5.90;99.90;;;;;;5076398;28;20446;-68
2022/02/19 10:40:33;;;;;;;5.47;1.80;;;6.00;99.90;;;;;;5075866;28;20482;-69
2022/02/19 10:43:04;;;;;;;6.83;1.53;;;6.10;99.90;;;;;;5076245;28;20932;-68
2022/02/19 10:45:32;;;;;;;3.17;1.40;;;6.20;99.90;;;;;;5076117;28;20778;-68
2022/02/19 10:48:15;;;;;;;4.83;1.70;;;6.30;99.90;;;;;;5075922;28;20940;-68
2022/02/19 10:50:44;;;;;;;2.90;1.70;;;6.30;99.90;;;;;;5073995;28;20933;-68
2022/02/19 10:53:20;;;;;;;3.13;1.57;;;6.40;99.90;;;;;;5076879;28;20465;-68
2022/02/19 10:55:48;;;;;;;3.10;1.47;;;6.50;99.90;;;;;;5075899;28;20445;-68
2022/02/19 10:58:14;;;;;;;3.87;1.40;;;6.40;99.90;;;;;;5075555;28;20476;-68
2022/02/19 11:00:41;;;;;;;4.43;1.57;;;6.40;99.90;;;;;;5075417;28;20482;-68
2022/02/19 11:03:10;;;;;;;10.17;1.60;;;6.30;99.90;;;;;;5075447;28;20454;-69
2022/02/19 11:05:47;;;;;;;4.00;1.60;;;6.30;99.90;;;;;;5075459;28;20845;-69
2022/02/19 11:08:17;;;;;;;2.63;1.80;;;6.30;99.90;;;;;;5075467;28;20438;-68
2022/02/19 11:10:47;;;;;;;4.23;1.83;;;6.30;99.90;;;;;;5075374;28;20828;-69
2022/02/19 11:13:16;;;;;;;5.33;2.00;;;6.30;99.90;;;;;;5074988;28;20895;-68
2022/02/19 11:15:46;;;;;;;5.63;1.87;;;6.30;99.90;;;;;;5075303;28;20459;-68
2022/02/19 11:18:17;;;;;;;5.37;1.80;;;6.30;99.90;;;;;;5075303;28;20461;-69
2022/02/19 11:20:44;;;;;;;5.77;2.00;;;6.30;99.90;;;;;;5075103;28;20520;-71
2022/02/19 11:23:12;;;;;;;4.63;1.50;;;6.30;99.90;;;;;;5075432;28;20446;-70
2022/02/19 11:25:40;;;;;;;4.03;1.90;;;6.30;99.90;;;;;;5076075;28;20984;-71
2022/02/19 11:28:10;;;;;;;6.40;1.90;;;6.40;99.90;;;;;;5075960;28;20842;-72
2022/02/19 11:30:45;;;;;;;9.07;2.33;;;6.40;99.90;;;;;;5076209;28;20486;-71
2022/02/19 11:33:13;;;;;;;6.07;2.00;;;6.50;99.90;;;;;;5076054;28;20454;-71
2022/02/19 11:35:42;;;;;;;5.20;2.10;;;6.50;99.90;;;;;;5076081;28;20469;-72
2022/02/19 11:38:25;;;;;;;3.70;2.10;;;6.60;99.90;;;;;;5076524;28;20545;-71
2022/02/19 11:40:54;;;;;;;4.60;2.03;;;6.70;99.90;;;;;;5075985;28;20474;-70
2022/02/19 11:43:39;;;;;;;5.13;2.10;;;6.70;99.90;;;;;;5076684;28;20458;-71
2022/02/19 11:46:32;;;;;;;5.00;1.77;;;6.80;99.90;;;;;;5076055;28;20458;-71
2022/02/19 11:49:16;;;;;;;6.10;1.87;;;6.90;99.90;;;;;;5079374;28;20470;-71
2022/02/19 11:51:42;;;;;;;6.10;2.67;;;6.90;99.90;;;;;;5075961;28;20439;-70
2022/02/19 11:54:23;;;;;;;6.53;2.33;;;7.00;99.90;;;;;;5075618;28;20454;-70
2022/02/19 11:56:52;;;;;;;5.23;1.57;;;7.20;99.90;;;;;;5075317;28;20493;-72
2022/02/19 11:59:21;;;;;;;3.60;1.73;;;7.30;99.90;;;;;;5075725;28;20478;-71
2022/02/19 12:02:15;;;;;;;5.53;2.10;;;7.30;99.90;;;;;;5075261;28;20537;-71
2022/02/19 12:04:43;;;;;;;7.13;1.60;;;7.20;99.90;;;;;;5075083;28;20765;-70
2022/02/19 12:07:15;;;;;;;3.03;1.40;;;7.30;99.90;;;;;;5074800;28;20486;-71
2022/02/19 12:10:02;;;;;;;13.97;2.23;;;7.20;99.90;;;;;;5074519;28;20458;-71
2022/02/19 12:12:30;;;;;;;6.90;2.13;;;7.20;99.90;;;;;;5075551;28;20489;-72
2022/02/19 12:14:58;;;;;;;2.90;1.20;;;7.20;99.90;;;;;;5076860;28;20454;-75
2022/02/19 12:17:41;;;;;;;3.57;0.87;;;7.20;99.90;;;;;;5076097;28;20777;-75
2022/02/19 12:20:24;;;;;;;4.33;1.60;;;7.20;99.90;;;;;;5074209;28;20521;-75
2022/02/19 12:22:52;;;;;;;3.40;1.77;;;7.20;99.90;;;;;;5076764;28;20446;-74
2022/02/19 12:25:19;;;;;;;6.30;1.50;;;7.20;99.90;;;;;;5078331;28;20458;-76
2022/02/19 12:28:17;;;;;;;6.43;2.30;;;7.20;99.90;;;;;;5079390;28;20447;-75
2022/02/19 12:30:48;;;;;;;3.60;1.50;;;7.30;99.90;;;;;;5078791;28;20489;-75
2022/02/19 12:33:16;;;;;;;5.10;1.83;;;7.50;99.90;;;;;;5080164;28;20815;-75
2022/02/19 12:35:44;;;;;;;4.67;2.20;;;7.60;99.90;;;;;;5078644;28;20458;-74
2022/02/19 12:38:13;;;;;;;4.67;1.60;;;7.70;99.90;;;;;;5079516;28;20458;-75
2022/02/19 12:40:40;;;;;;;5.03;1.23;;;7.70;99.90;;;;;;5079336;28;20482;-73
2022/02/19 12:43:13;;;;;;;6.10;1.87;;;7.60;99.90;;;;;;5082495;28;20983;-74
2022/02/19 12:45:40;;;;;;;4.73;1.90;;;7.50;99.90;;;;;;5083952;28;20452;-75
2022/02/19 12:48:09;;;;;;;5.83;1.90;;;7.60;99.90;;;;;;5084896;28;20446;-74
2022/02/19 12:50:36;;;;;;;5.00;1.47;;;8.00;99.90;;;;;;5085445;28;20867;-75
2022/02/19 12:53:04;;;;;;;4.83;1.80;;;8.60;99.90;;;;;;5083854;28;20453;-75
2022/02/19 12:55:31;;;;;;;3.67;1.60;;;8.90;99.90;;;;;;5085100;28;20469;-76
2022/02/19 12:58:02;;;;;;;5.17;1.83;;;9.00;99.90;;;;;;5081563;28;20469;-73
2022/02/19 13:00:30;;;;;;;7.03;1.73;;;8.70;99.90;;;;;;5083852;28;20463;-75
2022/02/19 13:03:04;;;;;;;4.50;1.60;;;8.50;99.90;;;;;;5083822;28;20450;-76
2022/02/19 13:05:34;;;;;;;4.00;1.67;;;8.20;99.90;;;;;;5082402;28;20453;-74
2022/02/19 13:08:08;;;;;;;6.07;2.00;;;8.10;99.90;;;;;;5086271;28;20922;-75
2022/02/19 13:10:36;;;;;;;2.33;1.37;;;7.90;99.90;;;;;;5086977;28;20435;-75
2022/02/19 13:13:16;;;;;;;8.30;1.60;;;7.80;99.90;;;;;;5086578;28;20485;-75